02:13 Bike Moetz - Marienbergjoch - Moetz
Ort Moetz Datum 19.09.2010 14:32:16
Kategorie MTB
Distanz 29,73 Kilometer Steigung 1.133,8 Meter Gefälle -1.132,7 Meter
Gesamt Zeit 02:12:44 Aktiv 02:12:44 Pause 00:00:00
Durchs. Tempo 13,4 km/h Tempo max. 40,1 km/h Tempo min. 3,0 km/h
Kalorien 0 Durchs. HF 146 BPM HF max. 171 BPM
Wetter 16 °C ChanceRain
Ausrüstung Schwalbe - Nobby Nic vorne
Schwalbe - Racing Ralph hinten
Shimano - HG-93 XT
Specialized - BG S-Works MTB
Specialized - Stumpjumper Comp
SwissStop - Disc17 Avid Juicy
Notiz Moetz - Marienbergjoch - Moetz ... keinerlei Probleme, super! ... garmin connect
Splits
Distanz (km) Gesamt Zeit Split Zeit Split Tempo Split Tempo Höhenprofil (m)
1,00 00:04:14 00:04:14 00:04:14 14,2 50,00
2,00 00:11:24 00:07:10 00:07:10 8,4 113,17
3,00 00:18:11 00:06:47 00:06:47 8,8 102,92
4,00 00:23:59 00:05:48 00:05:48 10,3 79,59
5,00 00:26:58 00:02:59 00:02:59 20,1 9,93
6,00 00:30:11 00:03:13 00:03:13 18,7 27,35
7,00 00:33:06 00:02:55 00:02:55 20,6 23,18
8,00 00:37:49 00:04:43 00:04:43 12,7 44,42
9,00 00:41:38 00:03:49 00:03:49 15,7 47,44
10,00 00:46:57 00:05:19 00:05:19 11,3 57,15
11,00 00:56:59 00:10:02 00:10:02 6,0 147,77
12,00 01:04:55 00:07:56 00:07:56 7,6 105,25
13,00 01:10:30 00:05:35 00:05:35 10,7 65,68
14,00 01:19:42 00:09:12 00:09:12 6,5 119,23
15,00 01:30:18 00:10:36 00:10:36 5,7 134,83
16,00 01:40:21 00:10:03 00:10:03 6,0 -85,54
17,00 01:43:48 00:03:27 00:03:27 17,4 -115,88
18,00 01:46:19 00:02:31 00:02:31 23,8 -98,35
19,00 01:48:31 00:02:12 00:02:12 27,3 -69,16
20,00 01:51:07 00:02:36 00:02:36 23,1 -162,68
21,00 01:53:53 00:02:46 00:02:46 21,7 -98,66
22,00 01:56:18 00:02:25 00:02:25 24,8 -23,04
23,00 01:57:52 00:01:34 00:01:34 38,3 -55,09
24,00 01:59:58 00:02:06 00:02:06 28,6 -35,15
25,00 02:02:27 00:02:29 00:02:29 24,2 -19,57
26,00 02:04:34 00:02:07 00:02:07 28,3 -22,41
27,00 02:06:55 00:02:21 00:02:21 25,5 -52,62
28,00 02:09:17 00:02:22 00:02:22 25,4 -106,41
29,00 02:11:08 00:01:51 00:01:51 32,4 -91,48